sensor_id;sensor_type;location;lat;lon;timestamp;pressure;altitude;pressure_sealevel;temperature;humidity
8366;BME280;4220;42.502;24.188;2024-03-17T00:01:00;95537.75;;;7.98;100.00
8366;BME280;4220;42.502;24.188;2024-03-17T00:03:26;95535.09;;;7.98;100.00
8366;BME280;4220;42.502;24.188;2024-03-17T00:05:56;95533.84;;;7.94;100.00
8366;BME280;4220;42.502;24.188;2024-03-17T00:08:23;95535.03;;;7.91;100.00
8366;BME280;4220;42.502;24.188;2024-03-17T00:10:50;95532.84;;;7.95;100.00
8366;BME280;4220;42.502;24.188;2024-03-17T00:13:16;95527.81;;;8.00;100.00
8366;BME280;4220;42.502;24.188;2024-03-17T00:15:43;95534.13;;;8.06;100.00
8366;BME280;4220;42.502;24.188;2024-03-17T00:18:09;95524.56;;;8.05;100.00
8366;BME280;4220;42.502;24.188;2024-03-17T00:20:36;95531.28;;;8.07;100.00
8366;BME280;4220;42.502;24.188;2024-03-17T00:23:04;95523.38;;;8.07;100.00
8366;BME280;4220;42.502;24.188;2024-03-17T00:25:31;95517.47;;;8.05;100.00
8366;BME280;4220;42.502;24.188;2024-03-17T00:27:57;95523.91;;;7.96;100.00
8366;BME280;4220;42.502;24.188;2024-03-17T00:30:24;95521.06;;;7.91;100.00
8366;BME280;4220;42.502;24.188;2024-03-17T00:32:49;95523.72;;;7.98;100.00
8366;BME280;4220;42.502;24.188;2024-03-17T00:35:16;95519.28;;;8.05;100.00
8366;BME280;4220;42.502;24.188;2024-03-17T00:37:46;95516.03;;;8.03;100.00
8366;BME280;4220;42.502;24.188;2024-03-17T00:40:14;95519.38;;;7.83;100.00
8366;BME280;4220;42.502;24.188;2024-03-17T00:42:41;95519.88;;;7.66;100.00
8366;BME280;4220;42.502;24.188;2024-03-17T00:45:08;95512.47;;;7.55;100.00
8366;BME280;4220;42.502;24.188;2024-03-17T00:47:35;95511.22;;;7.51;100.00
8366;BME280;4220;42.502;24.188;2024-03-17T00:50:02;95498.66;;;7.53;100.00
8366;BME280;4220;42.502;24.188;2024-03-17T00:52:29;95517.91;;;7.47;100.00
8366;BME280;4220;42.502;24.188;2024-03-17T00:54:56;95507.97;;;7.49;100.00
8366;BME280;4220;42.502;24.188;2024-03-17T00:57:23;95514.50;;;7.53;100.00
8366;BME280;4220;42.502;24.188;2024-03-17T00:59:50;95516.13;;;7.54;100.00
8366;BME280;4220;42.502;24.188;2024-03-17T01:02:18;95516.13;;;7.54;100.00
8366;BME280;4220;42.502;24.188;2024-03-17T01:04:47;95508.84;;;7.56;100.00
8366;BME280;4220;42.502;24.188;2024-03-17T01:07:12;95507.38;;;7.53;100.00
8366;BME280;4220;42.502;24.188;2024-03-17T01:09:39;95512.66;;;7.53;100.00
8366;BME280;4220;42.502;24.188;2024-03-17T01:12:05;95488.00;;;7.40;100.00
8366;BME280;4220;42.502;24.188;2024-03-17T01:14:33;95507.78;;;7.50;100.00
8366;BME280;4220;42.502;24.188;2024-03-17T01:17:00;95505.47;;;7.41;100.00
8366;BME280;4220;42.502;24.188;2024-03-17T01:19:30;95502.59;;;7.36;100.00
8366;BME280;4220;42.502;24.188;2024-03-17T01:21:56;95508.25;;;7.33;100.00
8366;BME280;4220;42.502;24.188;2024-03-17T01:24:23;95499.59;;;7.17;100.00
8366;BME280;4220;42.502;24.188;2024-03-17T01:26:50;95511.16;;;7.16;100.00
8366;BME280;4220;42.502;24.188;2024-03-17T01:29:16;95508.66;;;7.08;100.00
8366;BME280;4220;42.502;24.188;2024-03-17T01:31:44;95509.03;;;6.84;100.00
8366;BME280;4220;42.502;24.188;2024-03-17T01:34:10;95508.00;;;6.64;100.00
8366;BME280;4220;42.502;24.188;2024-03-17T01:36:37;95510.91;;;6.69;100.00
8366;BME280;4220;42.502;24.188;2024-03-17T01:39:03;95506.91;;;6.73;100.00
8366;BME280;4220;42.502;24.188;2024-03-17T01:41:31;95515.44;;;6.75;100.00
8366;BME280;4220;42.502;24.188;2024-03-17T01:43:57;95513.06;;;6.80;100.00
8366;BME280;4220;42.502;24.188;2024-03-17T01:46:24;95509.22;;;6.83;100.00
8366;BME280;4220;42.502;24.188;2024-03-17T01:48:51;95510.22;;;6.82;100.00
8366;BME280;4220;42.502;24.188;2024-03-17T01:51:19;95506.97;;;6.80;100.00
8366;BME280;4220;42.502;24.188;2024-03-17T01:53:45;95510.16;;;6.75;100.00
8366;BME280;4220;42.502;24.188;2024-03-17T01:56:13;95518.06;;;6.75;100.00
8366;BME280;4220;42.502;24.188;2024-03-17T01:58:42;95516.13;;;6.63;100.00
8366;BME280;4220;42.502;24.188;2024-03-17T02:01:11;95508.38;;;6.61;100.00
8366;BME280;4220;42.502;24.188;2024-03-17T02:03:37;95513.94;;;6.51;100.00
8366;BME280;4220;42.502;24.188;2024-03-17T02:06:05;95509.59;;;6.44;100.00
8366;BME280;4220;42.502;24.188;2024-03-17T02:08:46;95506.47;;;6.34;100.00
8366;BME280;4220;42.502;24.188;2024-03-17T02:11:24;95499.69;;;5.81;100.00
8366;BME280;4220;42.502;24.188;2024-03-17T02:13:50;95500.88;;;5.93;100.00
8366;BME280;4220;42.502;24.188;2024-03-17T02:16:17;95502.94;;;6.12;100.00
8366;BME280;4220;42.502;24.188;2024-03-17T02:18:44;95502.84;;;6.20;100.00
8366;BME280;4220;42.502;24.188;2024-03-17T02:21:12;95507.13;;;6.21;100.00
8366;BME280;4220;42.502;24.188;2024-03-17T02:23:39;95502.38;;;6.17;100.00
8366;BME280;4220;42.502;24.188;2024-03-17T02:26:06;95486.34;;;6.12;100.00
8366;BME280;4220;42.502;24.188;2024-03-17T02:28:38;95504.66;;;6.20;100.00
8366;BME280;4220;42.502;24.188;2024-03-17T02:31:07;95503.84;;;6.19;100.00
8366;BME280;4220;42.502;24.188;2024-03-17T02:33:33;95504.59;;;6.13;100.00
8366;BME280;4220;42.502;24.188;2024-03-17T02:36:00;95500.50;;;6.11;100.00
8366;BME280;4220;42.502;24.188;2024-03-17T02:38:26;95496.63;;;6.07;100.00
8366;BME280;4220;42.502;24.188;2024-03-17T02:41:12;95494.78;;;5.78;100.00
8366;BME280;4220;42.502;24.188;2024-03-17T02:43:39;95493.44;;;5.82;100.00
8366;BME280;4220;42.502;24.188;2024-03-17T02:46:04;95487.03;;;5.84;100.00
8366;BME280;4220;42.502;24.188;2024-03-17T02:48:33;95486.63;;;5.87;100.00
8366;BME280;4220;42.502;24.188;2024-03-17T02:51:00;95487.44;;;5.88;100.00
8366;BME280;4220;42.502;24.188;2024-03-17T02:53:27;95489.50;;;5.78;100.00
8366;BME280;4220;42.502;24.188;2024-03-17T02:55:53;95490.06;;;5.44;100.00
8366;BME280;4220;42.502;24.188;2024-03-17T02:58:22;95490.06;;;5.07;100.00
8366;BME280;4220;42.502;24.188;2024-03-17T03:00:48;95480.59;;;5.20;100.00
8366;BME280;4220;42.502;24.188;2024-03-17T03:03:15;95489.50;;;5.34;100.00
8366;BME280;4220;42.502;24.188;2024-03-17T03:05:41;95486.88;;;5.34;100.00
8366;BME280;4220;42.502;24.188;2024-03-17T03:08:08;95485.06;;;5.49;100.00
8366;BME280;4220;42.502;24.188;2024-03-17T03:10:35;95497.69;;;5.54;100.00
8366;BME280;4220;42.502;24.188;2024-03-17T03:13:02;95497.75;;;5.60;100.00
8366;BME280;4220;42.502;24.188;2024-03-17T03:15:31;95481.53;;;5.57;100.00
8366;BME280;4220;42.502;24.188;2024-03-17T03:17:58;95500.31;;;5.68;100.00
8366;BME280;4220;42.502;24.188;2024-03-17T03:20:25;95498.59;;;5.75;100.00
8366;BME280;4220;42.502;24.188;2024-03-17T03:22:53;95491.97;;;5.79;100.00
8366;BME280;4220;42.502;24.188;2024-03-17T03:25:20;95492.41;;;5.83;100.00
8366;BME280;4220;42.502;24.188;2024-03-17T03:27:47;95499.88;;;5.65;100.00
8366;BME280;4220;42.502;24.188;2024-03-17T03:30:14;95496.31;;;5.58;100.00
8366;BME280;4220;42.502;24.188;2024-03-17T03:32:42;95491.59;;;5.53;100.00
8366;BME280;4220;42.502;24.188;2024-03-17T03:35:09;95493.31;;;5.46;100.00
8366;BME280;4220;42.502;24.188;2024-03-17T03:37:36;95494.88;;;5.55;100.00
8366;BME280;4220;42.502;24.188;2024-03-17T03:40:04;95500.59;;;5.59;100.00
8366;BME280;4220;42.502;24.188;2024-03-17T03:42:41;95492.88;;;5.57;100.00
8366;BME280;4220;42.502;24.188;2024-03-17T03:45:08;95498.84;;;5.51;100.00
8366;BME280;4220;42.502;24.188;2024-03-17T03:47:38;95495.88;;;5.54;100.00
8366;BME280;4220;42.502;24.188;2024-03-17T03:50:07;95495.03;;;5.54;100.00
8366;BME280;4220;42.502;24.188;2024-03-17T03:52:35;95484.31;;;5.41;100.00
8366;BME280;4220;42.502;24.188;2024-03-17T03:55:02;95497.03;;;5.52;100.00
8366;BME280;4220;42.502;24.188;2024-03-17T03:57:31;95503.75;;;5.54;100.00
8366;BME280;4220;42.502;24.188;2024-03-17T03:59:58;95508.38;;;5.52;100.00
8366;BME280;4220;42.502;24.188;2024-03-17T04:02:25;95503.28;;;5.51;100.00
8366;BME280;4220;42.502;24.188;2024-03-17T04:04:56;95510.66;;;5.55;100.00
8366;BME280;4220;42.502;24.188;2024-03-17T04:07:24;95507.22;;;5.55;100.00
8366;BME280;4220;42.502;24.188;2024-03-17T04:09:52;95510.00;;;5.53;100.00
8366;BME280;4220;42.502;24.188;2024-03-17T04:12:19;95505.41;;;5.55;100.00
8366;BME280;4220;42.502;24.188;2024-03-17T04:14:46;95512.09;;;5.58;100.00
8366;BME280;4220;42.502;24.188;2024-03-17T04:17:17;95513.53;;;5.60;100.00
8366;BME280;4220;42.502;24.188;2024-03-17T04:19:46;95516.91;;;5.54;100.00
8366;BME280;4220;42.502;24.188;2024-03-17T04:22:13;95513.31;;;5.55;100.00
8366;BME280;4220;42.502;24.188;2024-03-17T04:24:41;95523.44;;;5.58;100.00
8366;BME280;4220;42.502;24.188;2024-03-17T04:27:08;95517.53;;;5.56;100.00
8366;BME280;4220;42.502;24.188;2024-03-17T04:29:35;95527.09;;;5.57;100.00
8366;BME280;4220;42.502;24.188;2024-03-17T04:32:02;95531.25;;;5.52;100.00
8366;BME280;4220;42.502;24.188;2024-03-17T04:34:30;95529.75;;;5.35;100.00
8366;BME280;4220;42.502;24.188;2024-03-17T04:36:57;95529.03;;;5.41;100.00
8366;BME280;4220;42.502;24.188;2024-03-17T04:39:24;95530.78;;;5.48;100.00
8366;BME280;4220;42.502;24.188;2024-03-17T04:41:52;95536.97;;;5.55;100.00
8366;BME280;4220;42.502;24.188;2024-03-17T04:44:19;95544.78;;;5.63;100.00
8366;BME280;4220;42.502;24.188;2024-03-17T04:46:45;95533.81;;;5.60;100.00
8366;BME280;4220;42.502;24.188;2024-03-17T04:49:12;95544.78;;;5.63;100.00
8366;BME280;4220;42.502;24.188;2024-03-17T04:51:39;95547.41;;;5.63;100.00
8366;BME280;4220;42.502;24.188;2024-03-17T04:54:06;95553.00;;;5.46;100.00
8366;BME280;4220;42.502;24.188;2024-03-17T04:56:33;95549.84;;;5.50;100.00
8366;BME280;4220;42.502;24.188;2024-03-17T04:59:01;95552.38;;;5.58;100.00
8366;BME280;4220;42.502;24.188;2024-03-17T05:01:27;95558.47;;;5.59;100.00
8366;BME280;4220;42.502;24.188;2024-03-17T05:03:56;95557.47;;;5.60;100.00
8366;BME280;4220;42.502;24.188;2024-03-17T05:06:23;95566.84;;;5.62;100.00
8366;BME280;4220;42.502;24.188;2024-03-17T05:08:50;95552.50;;;5.65;100.00
8366;BME280;4220;42.502;24.188;2024-03-17T05:11:16;95567.13;;;5.67;100.00
8366;BME280;4220;42.502;24.188;2024-03-17T05:13:44;95569.00;;;5.59;100.00
8366;BME280;4220;42.502;24.188;2024-03-17T05:16:12;95563.72;;;5.59;100.00
8366;BME280;4220;42.502;24.188;2024-03-17T05:18:39;95572.72;;;5.64;100.00
8366;BME280;4220;42.502;24.188;2024-03-17T05:21:06;95566.56;;;5.57;100.00
8366;BME280;4220;42.502;24.188;2024-03-17T05:23:35;95570.91;;;5.65;100.00
8366;BME280;4220;42.502;24.188;2024-03-17T05:26:03;95576.56;;;5.76;100.00
8366;BME280;4220;42.502;24.188;2024-03-17T05:28:31;95571.91;;;5.78;100.00
8366;BME280;4220;42.502;24.188;2024-03-17T05:30:57;95571.38;;;5.83;100.00
8366;BME280;4220;42.502;24.188;2024-03-17T05:33:26;95572.44;;;5.97;100.00
8366;BME280;4220;42.502;24.188;2024-03-17T05:35:54;95577.84;;;6.10;100.00
8366;BME280;4220;42.502;24.188;2024-03-17T05:38:22;95576.41;;;6.22;100.00
8366;BME280;4220;42.502;24.188;2024-03-17T05:40:53;95567.97;;;6.26;100.00
8366;BME280;4220;42.502;24.188;2024-03-17T05:43:20;95573.75;;;6.36;100.00
8366;BME280;4220;42.502;24.188;2024-03-17T05:45:47;95577.66;;;6.40;100.00
8366;BME280;4220;42.502;24.188;2024-03-17T05:48:13;95579.56;;;6.46;100.00
8366;BME280;4220;42.502;24.188;2024-03-17T05:50:41;95578.84;;;6.52;100.00
8366;BME280;4220;42.502;24.188;2024-03-17T05:53:08;95575.63;;;6.57;100.00
8366;BME280;4220;42.502;24.188;2024-03-17T05:55:35;95584.44;;;6.64;100.00
8366;BME280;4220;42.502;24.188;2024-03-17T05:58:02;95577.97;;;6.67;100.00
8366;BME280;4220;42.502;24.188;2024-03-17T06:00:29;95585.22;;;6.43;100.00
8366;BME280;4220;42.502;24.188;2024-03-17T06:02:56;95577.56;;;6.48;100.00
8366;BME280;4220;42.502;24.188;2024-03-17T06:05:23;95584.53;;;6.56;100.00
8366;BME280;4220;42.502;24.188;2024-03-17T06:07:51;95581.53;;;6.59;100.00
8366;BME280;4220;42.502;24.188;2024-03-17T06:10:18;95579.53;;;6.61;100.00
8366;BME280;4220;42.502;24.188;2024-03-17T06:12:49;95583.63;;;6.49;100.00
8366;BME280;4220;42.502;24.188;2024-03-17T06:15:16;95588.72;;;6.65;100.00
8366;BME280;4220;42.502;24.188;2024-03-17T06:17:43;95587.16;;;6.71;100.00
8366;BME280;4220;42.502;24.188;2024-03-17T06:20:10;95582.84;;;6.84;100.00
8366;BME280;4220;42.502;24.188;2024-03-17T06:22:39;95589.59;;;6.72;100.00
8366;BME280;4220;42.502;24.188;2024-03-17T06:25:07;95581.66;;;6.36;100.00
8366;BME280;4220;42.502;24.188;2024-03-17T06:27:34;95585.56;;;6.55;100.00
8366;BME280;4220;42.502;24.188;2024-03-17T06:30:01;95599.88;;;6.67;100.00
8366;BME280;4220;42.502;24.188;2024-03-17T06:32:29;95607.59;;;6.69;100.00
8366;BME280;4220;42.502;24.188;2024-03-17T06:34:56;95605.13;;;6.82;100.00
8366;BME280;4220;42.502;24.188;2024-03-17T06:37:23;95595.97;;;6.99;100.00
8366;BME280;4220;42.502;24.188;2024-03-17T06:39:50;95607.50;;;7.34;100.00
8366;BME280;4220;42.502;24.188;2024-03-17T06:42:18;95605.88;;;7.54;100.00
8366;BME280;4220;42.502;24.188;2024-03-17T06:44:45;95612.88;;;7.68;100.00
8366;BME280;4220;42.502;24.188;2024-03-17T06:47:12;95617.13;;;7.90;100.00
8366;BME280;4220;42.502;24.188;2024-03-17T06:49:39;95617.84;;;8.05;100.00
8366;BME280;4220;42.502;24.188;2024-03-17T06:52:05;95614.28;;;8.19;100.00
8366;BME280;4220;42.502;24.188;2024-03-17T06:54:32;95610.44;;;8.22;100.00
8366;BME280;4220;42.502;24.188;2024-03-17T06:56:59;95614.63;;;8.37;100.00
8366;BME280;4220;42.502;24.188;2024-03-17T06:59:27;95615.94;;;8.54;100.00
8366;BME280;4220;42.502;24.188;2024-03-17T07:01:54;95617.41;;;8.64;100.00
8366;BME280;4220;42.502;24.188;2024-03-17T07:04:21;95619.28;;;8.76;100.00
8366;BME280;4220;42.502;24.188;2024-03-17T07:06:48;95614.47;;;8.93;100.00
8366;BME280;4220;42.502;24.188;2024-03-17T07:09:15;95609.22;;;9.06;100.00
8366;BME280;4220;42.502;24.188;2024-03-17T07:11:43;95617.41;;;9.17;100.00
8366;BME280;4220;42.502;24.188;2024-03-17T07:14:10;95618.44;;;9.30;100.00
8366;BME280;4220;42.502;24.188;2024-03-17T07:16:39;95619.09;;;9.38;100.00
8366;BME280;4220;42.502;24.188;2024-03-17T07:19:05;95616.25;;;9.59;100.00
8366;BME280;4220;42.502;24.188;2024-03-17T07:21:32;95608.31;;;9.79;100.00
8366;BME280;4220;42.502;24.188;2024-03-17T07:24:00;95606.06;;;9.96;100.00
8366;BME280;4220;42.502;24.188;2024-03-17T07:26:29;95608.09;;;10.00;100.00
8366;BME280;4220;42.502;24.188;2024-03-17T07:28:56;95618.72;;;10.20;100.00
8366;BME280;4220;42.502;24.188;2024-03-17T07:31:23;95613.19;;;10.41;100.00
8366;BME280;4220;42.502;24.188;2024-03-17T07:33:51;95611.72;;;10.58;100.00
8366;BME280;4220;42.502;24.188;2024-03-17T07:36:18;95605.75;;;10.69;100.00
8366;BME280;4220;42.502;24.188;2024-03-17T07:38:47;95607.34;;;10.83;100.00
8366;BME280;4220;42.502;24.188;2024-03-17T07:41:14;95601.00;;;10.84;100.00
8366;BME280;4220;42.502;24.188;2024-03-17T07:43:41;95601.31;;;11.07;100.00
8366;BME280;4220;42.502;24.188;2024-03-17T07:46:09;95601.59;;;11.31;100.00
8366;BME280;4220;42.502;24.188;2024-03-17T07:48:38;95595.31;;;11.56;100.00
8366;BME280;4220;42.502;24.188;2024-03-17T07:51:08;95598.88;;;11.75;100.00
8366;BME280;4220;42.502;24.188;2024-03-17T07:53:36;95595.09;;;11.89;100.00
8366;BME280;4220;42.502;24.188;2024-03-17T07:56:04;95578.28;;;11.95;100.00
8366;BME280;4220;42.502;24.188;2024-03-17T07:58:32;95592.06;;;12.10;100.00
8366;BME280;4220;42.502;24.188;2024-03-17T08:01:02;95588.81;;;12.26;100.00
8366;BME280;4220;42.502;24.188;2024-03-17T08:03:29;95588.09;;;12.37;100.00
8366;BME280;4220;42.502;24.188;2024-03-17T08:05:56;95583.09;;;12.48;100.00
8366;BME280;4220;42.502;24.188;2024-03-17T08:08:25;95584.56;;;12.62;100.00
8366;BME280;4220;42.502;24.188;2024-03-17T08:10:52;95585.16;;;12.64;100.00
8366;BME280;4220;42.502;24.188;2024-03-17T08:13:19;95577.31;;;12.69;100.00
8366;BME280;4220;42.502;24.188;2024-03-17T08:15:46;95577.84;;;12.77;100.00
8366;BME280;4220;42.502;24.188;2024-03-17T08:18:13;95572.28;;;12.79;100.00
8366;BME280;4220;42.502;24.188;2024-03-17T08:20:41;95574.44;;;12.88;100.00
8366;BME280;4220;42.502;24.188;2024-03-17T08:23:09;95562.06;;;12.94;100.00
8366;BME280;4220;42.502;24.188;2024-03-17T08:25:38;95557.91;;;12.98;99.13
8366;BME280;4220;42.502;24.188;2024-03-17T08:28:05;95562.66;;;13.14;99.55
8366;BME280;4220;42.502;24.188;2024-03-17T08:30:33;95559.38;;;13.30;98.13
8366;BME280;4220;42.502;24.188;2024-03-17T08:33:00;95562.06;;;13.42;96.08
8366;BME280;4220;42.502;24.188;2024-03-17T08:35:27;95560.38;;;13.59;94.40
8366;BME280;4220;42.502;24.188;2024-03-17T08:37:53;95565.25;;;13.73;93.33
8366;BME280;4220;42.502;24.188;2024-03-17T08:40:20;95565.16;;;13.68;92.35
8366;BME280;4220;42.502;24.188;2024-03-17T08:42:49;95556.25;;;13.86;91.25
8366;BME280;4220;42.502;24.188;2024-03-17T08:45:16;95544.78;;;14.09;90.39
8366;BME280;4220;42.502;24.188;2024-03-17T08:47:43;95553.72;;;14.37;88.70
8366;BME280;4220;42.502;24.188;2024-03-17T08:50:10;95556.25;;;14.67;87.47
8366;BME280;4220;42.502;24.188;2024-03-17T08:52:39;95556.00;;;14.80;84.95
8366;BME280;4220;42.502;24.188;2024-03-17T08:55:06;95545.00;;;14.65;85.15
8366;BME280;4220;42.502;24.188;2024-03-17T08:57:36;95554.25;;;14.74;84.96
8366;BME280;4220;42.502;24.188;2024-03-17T09:00:05;95550.34;;;14.65;83.68
8366;BME280;4220;42.502;24.188;2024-03-17T09:02:34;95545.97;;;14.59;82.98
8366;BME280;4220;42.502;24.188;2024-03-17T09:05:01;95545.00;;;14.65;74.23
8366;BME280;4220;42.502;24.188;2024-03-17T09:07:29;95544.13;;;14.88;73.52
8366;BME280;4220;42.502;24.188;2024-03-17T09:09:56;95550.16;;;14.95;71.23
8366;BME280;4220;42.502;24.188;2024-03-17T09:12:22;95544.91;;;15.00;69.31
8366;BME280;4220;42.502;24.188;2024-03-17T09:14:49;95546.50;;;15.13;68.77
8366;BME280;4220;42.502;24.188;2024-03-17T09:17:18;95541.53;;;15.33;67.83
8366;BME280;4220;42.502;24.188;2024-03-17T09:19:46;95534.63;;;15.48;67.24
8366;BME280;4220;42.502;24.188;2024-03-17T09:22:13;95546.94;;;15.49;67.53
8366;BME280;4220;42.502;24.188;2024-03-17T09:24:39;95552.28;;;14.81;67.58
8366;BME280;4220;42.502;24.188;2024-03-17T09:27:07;95538.06;;;14.64;67.65
8366;BME280;4220;42.502;24.188;2024-03-17T09:29:34;95534.66;;;14.69;68.03
8366;BME280;4220;42.502;24.188;2024-03-17T09:32:01;95538.84;;;14.76;68.06
8366;BME280;4220;42.502;24.188;2024-03-17T09:34:29;95524.66;;;14.76;67.97
8366;BME280;4220;42.502;24.188;2024-03-17T09:36:56;95538.84;;;14.76;67.27
8366;BME280;4220;42.502;24.188;2024-03-17T09:39:23;95523.72;;;14.82;67.26
8366;BME280;4220;42.502;24.188;2024-03-17T09:41:50;95519.94;;;14.55;66.67
8366;BME280;4220;42.502;24.188;2024-03-17T09:44:16;95517.03;;;14.68;66.26
8366;BME280;4220;42.502;24.188;2024-03-17T09:46:44;95520.59;;;15.13;65.55
8366;BME280;4220;42.502;24.188;2024-03-17T09:49:14;95524.19;;;15.63;64.26
8366;BME280;4220;42.502;24.188;2024-03-17T09:51:44;95521.84;;;16.00;63.93
8366;BME280;4220;42.502;24.188;2024-03-17T09:54:17;95519.56;;;16.25;63.23
8366;BME280;4220;42.502;24.188;2024-03-17T09:56:45;95518.47;;;16.43;62.57
8366;BME280;4220;42.502;24.188;2024-03-17T09:59:12;95520.25;;;16.54;61.90
8366;BME280;4220;42.502;24.188;2024-03-17T10:01:39;95522.56;;;16.89;60.02
8366;BME280;4220;42.502;24.188;2024-03-17T10:04:05;95517.38;;;17.04;58.94
8366;BME280;4220;42.502;24.188;2024-03-17T10:06:45;95514.38;;;17.00;57.60
8366;BME280;4220;42.502;24.188;2024-03-17T10:09:16;95521.75;;;16.88;57.80
8366;BME280;4220;42.502;24.188;2024-03-17T10:11:46;95523.56;;;16.45;58.10
8366;BME280;4220;42.502;24.188;2024-03-17T10:14:16;95520.66;;;16.46;59.39
8366;BME280;4220;42.502;24.188;2024-03-17T10:16:43;95514.28;;;16.69;59.02
8366;BME280;4220;42.502;24.188;2024-03-17T10:19:12;95506.00;;;16.92;58.50
8366;BME280;4220;42.502;24.188;2024-03-17T10:21:40;95518.22;;;17.31;57.62
8366;BME280;4220;42.502;24.188;2024-03-17T10:24:11;95515.03;;;17.34;58.18
8366;BME280;4220;42.502;24.188;2024-03-17T10:26:42;95517.19;;;17.59;55.71
8366;BME280;4220;42.502;24.188;2024-03-17T10:29:23;95511.69;;;17.76;55.96
8366;BME280;4220;42.502;24.188;2024-03-17T10:31:52;95510.31;;;18.05;55.20
8366;BME280;4220;42.502;24.188;2024-03-17T10:34:19;95519.22;;;18.47;54.27
8366;BME280;4220;42.502;24.188;2024-03-17T10:36:50;95512.59;;;18.23;56.99
8366;BME280;4220;42.502;24.188;2024-03-17T10:39:25;95503.94;;;18.16;62.73
8366;BME280;4220;42.502;24.188;2024-03-17T10:42:00;95507.47;;;18.21;62.35
8366;BME280;4220;42.502;24.188;2024-03-17T10:44:27;95511.03;;;18.32;63.16
8366;BME280;4220;42.502;24.188;2024-03-17T10:46:56;95507.47;;;18.58;61.82
8366;BME280;4220;42.502;24.188;2024-03-17T10:49:28;95506.22;;;18.34;60.58
8366;BME280;4220;42.502;24.188;2024-03-17T10:51:59;95498.91;;;18.24;60.51
8366;BME280;4220;42.502;24.188;2024-03-17T10:54:27;95500.75;;;18.19;59.33
8366;BME280;4220;42.502;24.188;2024-03-17T10:56:56;95488.84;;;18.05;58.20
8366;BME280;4220;42.502;24.188;2024-03-17T10:59:34;95490.81;;;18.19;58.94
8366;BME280;4220;42.502;24.188;2024-03-17T11:02:21;95496.25;;;18.29;58.77
8366;BME280;4220;42.502;24.188;2024-03-17T11:04:51;95488.13;;;18.19;56.69
8366;BME280;4220;42.502;24.188;2024-03-17T11:07:18;95488.28;;;18.03;58.13
8366;BME280;4220;42.502;24.188;2024-03-17T11:09:49;95486.31;;;17.88;61.69
8366;BME280;4220;42.502;24.188;2024-03-17T11:12:41;95480.13;;;17.88;61.75
8366;BME280;4220;42.502;24.188;2024-03-17T11:15:37;95480.09;;;18.19;62.08
8366;BME280;4220;42.502;24.188;2024-03-17T11:18:37;95484.78;;;18.44;60.33
8366;BME280;4220;42.502;24.188;2024-03-17T11:21:22;95481.91;;;18.14;58.64
8366;BME280;4220;42.502;24.188;2024-03-17T11:23:58;95472.09;;;17.88;60.51
8366;BME280;4220;42.502;24.188;2024-03-17T11:26:30;95474.00;;;17.60;61.35
8366;BME280;4220;42.502;24.188;2024-03-17T11:28:57;95472.84;;;17.51;61.59
8366;BME280;4220;42.502;24.188;2024-03-17T11:31:45;95462.56;;;17.43;62.32
8366;BME280;4220;42.502;24.188;2024-03-17T11:37:06;95459.84;;;16.85;64.78
8366;BME280;4220;42.502;24.188;2024-03-17T11:39:55;95463.56;;;16.84;65.18
8366;BME280;4220;42.502;24.188;2024-03-17T11:42:25;95470.22;;;16.81;64.82
8366;BME280;4220;42.502;24.188;2024-03-17T11:44:59;95469.00;;;16.67;64.85
8366;BME280;4220;42.502;24.188;2024-03-17T11:47:37;95465.69;;;16.22;64.67
8366;BME280;4220;42.502;24.188;2024-03-17T11:50:06;95465.81;;;16.10;66.13
8366;BME280;4220;42.502;24.188;2024-03-17T11:52:35;95473.00;;;15.72;63.46
8366;BME280;4220;42.502;24.188;2024-03-17T11:55:01;95467.22;;;15.63;63.69
8366;BME280;4220;42.502;24.188;2024-03-17T11:57:29;95456.59;;;15.68;66.38
8366;BME280;4220;42.502;24.188;2024-03-17T11:59:56;95457.03;;;15.60;67.20
8366;BME280;4220;42.502;24.188;2024-03-17T12:02:24;95461.41;;;15.66;67.34
8366;BME280;4220;42.502;24.188;2024-03-17T12:04:52;95434.66;;;15.66;67.11
8366;BME280;4220;42.502;24.188;2024-03-17T12:07:20;95446.72;;;15.85;65.84
8366;BME280;4220;42.502;24.188;2024-03-17T12:09:46;95444.09;;;15.90;65.83
8366;BME280;4220;42.502;24.188;2024-03-17T12:12:18;95433.00;;;15.98;65.81
8366;BME280;4220;42.502;24.188;2024-03-17T12:14:46;95436.22;;;16.00;66.36
8366;BME280;4220;42.502;24.188;2024-03-17T12:17:15;95444.13;;;15.40;63.41
8366;BME280;4220;42.502;24.188;2024-03-17T12:19:45;95446.75;;;15.07;63.29
8366;BME280;4220;42.502;24.188;2024-03-17T12:22:16;95444.41;;;15.11;62.87
8366;BME280;4220;42.502;24.188;2024-03-17T12:24:44;95443.34;;;15.28;63.43
8366;BME280;4220;42.502;24.188;2024-03-17T12:27:17;95436.53;;;15.49;64.27
8366;BME280;4220;42.502;24.188;2024-03-17T12:29:43;95444.44;;;15.60;62.46
8366;BME280;4220;42.502;24.188;2024-03-17T12:32:13;95440.75;;;16.00;62.38
8366;BME280;4220;42.502;24.188;2024-03-17T12:34:40;95438.94;;;16.60;61.38
8366;BME280;4220;42.502;24.188;2024-03-17T12:37:07;95439.88;;;17.24;59.82
8366;BME280;4220;42.502;24.188;2024-03-17T12:39:34;95442.88;;;17.59;58.80
8366;BME280;4220;42.502;24.188;2024-03-17T12:42:05;95436.81;;;17.74;58.43
8366;BME280;4220;42.502;24.188;2024-03-17T12:44:32;95440.91;;;17.82;56.73
8366;BME280;4220;42.502;24.188;2024-03-17T12:47:01;95435.19;;;17.68;57.15
8366;BME280;4220;42.502;24.188;2024-03-17T12:49:29;95429.53;;;17.70;56.81
8366;BME280;4220;42.502;24.188;2024-03-17T12:51:56;95423.06;;;17.60;60.90
8366;BME280;4220;42.502;24.188;2024-03-17T12:54:23;95426.03;;;17.37;60.47
8366;BME280;4220;42.502;24.188;2024-03-17T12:56:51;95414.50;;;17.05;61.41
8366;BME280;4220;42.502;24.188;2024-03-17T12:59:40;95414.13;;;16.70;63.39
8366;BME280;4220;42.502;24.188;2024-03-17T13:02:24;95405.50;;;16.24;65.62
8366;BME280;4220;42.502;24.188;2024-03-17T13:05:07;95403.78;;;16.13;66.99
8366;BME280;4220;42.502;24.188;2024-03-17T13:07:37;95402.06;;;16.24;65.36
8366;BME280;4220;42.502;24.188;2024-03-17T13:10:04;95408.25;;;16.29;63.80
8366;BME280;4220;42.502;24.188;2024-03-17T13:12:33;95401.91;;;16.35;65.92
8366;BME280;4220;42.502;24.188;2024-03-17T13:14:59;95406.72;;;16.55;66.39
8366;BME280;4220;42.502;24.188;2024-03-17T13:17:26;95399.88;;;16.64;66.68
8366;BME280;4220;42.502;24.188;2024-03-17T13:19:54;95402.19;;;16.56;65.99